This is the latest recevied weather packets stored in our database for station/object HS5BOG-13. If no packets are shown the sender has not sent any weather packets the latest 10 day(s).
| Time | Temp. | Humidity | Pressure | Rain* | Wind** | Luminosity | Snow |
|---|---|---|---|---|---|---|---|
| 1777907372 | 28.89° C | 69% | 995.3 hPa | - | - | - | - |
| 1777906766 | 28.89° C | 71% | 995 hPa | - | - | - | - |
| 1777906161 | 28.33° C | 67% | 994.9 hPa | - | - | - | - |
| 1777905555 | 28.33° C | 66% | 994.6 hPa | - | - | - | - |
| 1777900113 | 32.22° C | 48% | 993.7 hPa | - | - | - | - |
| 1777899508 | 32.22° C | 45% | 993.6 hPa | - | - | - | - |
| 1777898902 | 32.22° C | 41% | 992.9 hPa | - | - | - | - |
| 1777898297 | 32.78° C | 45% | 991.6 hPa | - | - | - | - |
| 1777897691 | 33.33° C | 46% | 991.3 hPa | - | - | - | - |
| 1777897085 | 33.33° C | 42% | 990.5 hPa | - | - | - | - |
| 1777896480 | 33.89° C | 38% | 990 hPa | - | - | - | - |
| 1777895874 | 34.44° C | 37% | 989.8 hPa | - | - | - | - |
| 1777895268 | 34.44° C | 38% | 989.1 hPa | - | - | - | - |
| 1777894663 | 34.44° C | 36% | 988.8 hPa | - | - | - | - |
| 1777894057 | 34.44° C | 37% | 988.3 hPa | - | - | - | - |
| 1777893452 | 33.89° C | 36% | 988.2 hPa | - | - | - | - |
| 1777892846 | 34.44° C | 37% | 988.1 hPa | - | - | - | - |
| 1777892241 | 34.44° C | 37% | 987.9 hPa | - | - | - | - |
| 1777891635 | 34.44° C | 38% | 987.7 hPa | - | - | - | - |
| 1777891030 | 34.44° C | 39% | 987.7 hPa | - | - | - | - |
| 1777890424 | 34.44° C | 38% | 987.7 hPa | - | - | - | - |
| 1777889818 | 34.44° C | 39% | 987.4 hPa | - | - | - | - |
| 1777889213 | 34.44° C | 37% | 987.5 hPa | - | - | - | - |
| 1777888607 | 34.44° C | 38% | 987.5 hPa | - | - | - | - |
| 1777888002 | 34.44° C | 39% | 987.7 hPa | - | - | - | - |
* Rain since midnight (hover to see other rain measurements)
** Current wind speed in m/s (hover to see current wind gust speed)